Time;durP1;ratioP1;P1;durP2;ratioP2;P2;SDS_P1;SDS_P2;PMS_P1;PMS_P2;Temp;Humidity;BMP_temperature;BMP_pressure;BME280_temperature;BME280_humidity;BME280_pressure;Samples;Min_cycle;Max_cycle;Signal;HPM_P1;HPM_P2
2022/06/26 00:01:00;;;;;;;5.03;4.13;;;20.20;99.90;;;;;;5039427;28;20021;-45
2022/06/26 00:03:26;;;;;;;4.57;4.18;;;20.10;99.90;;;;;;5045941;28;20017;-48
2022/06/26 00:05:52;;;;;;;4.28;3.90;;;20.10;99.90;;;;;;5049204;28;20037;-46
2022/06/26 00:08:18;;;;;;;4.47;4.05;;;20.10;99.90;;;;;;5050118;28;20024;-45
2022/06/26 00:10:45;;;;;;;4.63;4.10;;;20.10;99.90;;;;;;5049833;28;20071;-45
2022/06/26 00:13:10;;;;;;;4.50;4.10;;;20.00;99.90;;;;;;5050076;28;20482;-45
2022/06/26 00:15:36;;;;;;;4.93;4.45;;;20.00;99.90;;;;;;5048961;28;20028;-47
2022/06/26 00:18:02;;;;;;;5.18;4.68;;;20.00;99.90;;;;;;5049672;28;20037;-46
2022/06/26 00:20:27;;;;;;;5.10;4.70;;;19.90;99.90;;;;;;5048594;28;20555;-45
2022/06/26 00:22:53;;;;;;;6.22;4.25;;;19.90;99.90;;;;;;5049789;28;20262;-47
2022/06/26 00:25:18;;;;;;;4.57;4.18;;;20.00;99.90;;;;;;5049212;28;20067;-48
2022/06/26 00:27:46;;;;;;;4.53;4.13;;;19.90;99.90;;;;;;5049511;28;20060;-47
2022/06/26 00:30:13;;;;;;;4.65;4.13;;;19.90;99.90;;;;;;5042772;28;20024;-45
2022/06/26 00:32:39;;;;;;;4.97;4.53;;;19.90;99.90;;;;;;5041675;28;20494;-46
2022/06/26 00:35:05;;;;;;;6.57;4.88;;;19.80;99.90;;;;;;5049427;28;20032;-45
2022/06/26 00:37:31;;;;;;;4.60;4.20;;;19.90;99.90;;;;;;5049956;28;20020;-46
2022/06/26 00:39:56;;;;;;;6.93;4.38;;;19.80;99.90;;;;;;5049694;28;20029;-46
2022/06/26 00:42:21;;;;;;;4.85;4.28;;;19.70;99.90;;;;;;5049594;28;20029;-45
2022/06/26 00:44:47;;;;;;;4.40;4.10;;;19.70;99.90;;;;;;5048502;28;20028;-45
2022/06/26 00:47:13;;;;;;;4.38;4.00;;;19.70;99.90;;;;;;5049025;28;20033;-45
2022/06/26 00:49:38;;;;;;;5.72;4.45;;;19.60;99.90;;;;;;5048017;28;20025;-45
2022/06/26 00:52:04;;;;;;;4.95;4.35;;;19.70;99.90;;;;;;5048983;28;20429;-46
2022/06/26 00:54:30;;;;;;;4.75;4.35;;;19.70;99.90;;;;;;5047265;28;20108;-46
2022/06/26 00:56:56;;;;;;;5.00;4.55;;;19.60;99.90;;;;;;5047891;28;20393;-45
2022/06/26 00:59:24;;;;;;;7.97;4.68;;;19.60;99.90;;;;;;5042506;28;20024;-44
2022/06/26 01:01:50;;;;;;;7.15;4.70;;;19.60;99.90;;;;;;5039955;28;20025;-46
2022/06/26 01:04:16;;;;;;;4.63;4.22;;;19.60;99.90;;;;;;5048414;28;20099;-45
2022/06/26 01:06:42;;;;;;;4.90;4.22;;;19.60;99.90;;;;;;5047483;28;20049;-45
2022/06/26 01:09:10;;;;;;;5.15;4.70;;;19.60;99.90;;;;;;5048891;28;20474;-44
2022/06/26 01:11:37;;;;;;;6.80;4.63;;;19.60;99.90;;;;;;5048728;28;20037;-45
2022/06/26 01:14:03;;;;;;;5.25;4.70;;;19.50;99.90;;;;;;5048195;28;20083;-44
2022/06/26 01:16:29;;;;;;;4.72;4.22;;;19.50;99.90;;;;;;5047348;28;20397;-44
2022/06/26 01:18:55;;;;;;;4.97;4.07;;;19.50;99.90;;;;;;5048772;28;20194;-46
2022/06/26 01:21:22;;;;;;;4.93;4.45;;;19.50;99.90;;;;;;5048587;28;20029;-45
2022/06/26 01:23:49;;;;;;;5.57;4.70;;;19.40;99.90;;;;;;5048351;28;20040;-45
2022/06/26 01:26:16;;;;;;;4.82;4.32;;;19.40;99.90;;;;;;5048308;28;20450;-45
2022/06/26 01:28:41;;;;;;;4.28;3.88;;;19.40;99.90;;;;;;5047867;28;20036;-45
2022/06/26 01:31:07;;;;;;;4.95;4.53;;;19.40;99.90;;;;;;5036283;28;20026;-49
2022/06/26 01:33:33;;;;;;;4.70;4.30;;;19.30;99.90;;;;;;5045726;28;20493;-46
2022/06/26 01:35:59;;;;;;;7.30;4.57;;;19.30;99.90;;;;;;5047789;28;20021;-45
2022/06/26 01:38:25;;;;;;;4.82;4.32;;;19.20;99.90;;;;;;5048684;28;20029;-45
2022/06/26 01:40:52;;;;;;;5.40;4.47;;;19.20;99.90;;;;;;5047093;28;20394;-45
2022/06/26 01:43:21;;;;;;;4.30;3.90;;;19.20;99.90;;;;;;5048444;28;20427;-44
2022/06/26 01:45:49;;;;;;;4.97;4.22;;;19.20;99.90;;;;;;5047661;28;20040;-44
2022/06/26 01:48:15;;;;;;;4.63;4.22;;;19.10;99.90;;;;;;5048431;28;20025;-44
2022/06/26 01:50:41;;;;;;;6.28;4.22;;;19.10;99.90;;;;;;5048505;28;20463;-47
2022/06/26 01:53:07;;;;;;;4.53;4.13;;;19.10;99.90;;;;;;5048388;28;20029;-45
2022/06/26 01:55:32;;;;;;;4.40;4.00;;;19.10;99.90;;;;;;5047957;28;20033;-45
2022/06/26 01:58:02;;;;;;;4.53;4.13;;;19.10;99.90;;;;;;5048561;28;20100;-46
2022/06/26 02:00:29;;;;;;;5.75;4.00;;;19.10;99.90;;;;;;5041567;28;20025;-46
2022/06/26 02:02:55;;;;;;;4.60;4.20;;;19.00;99.90;;;;;;5032218;28;20616;-44
2022/06/26 02:05:21;;;;;;;4.72;4.32;;;19.00;99.90;;;;;;5047873;28;20184;-46
2022/06/26 02:07:47;;;;;;;5.45;4.72;;;19.00;99.90;;;;;;5047870;28;20386;-43
2022/06/26 02:15:41;;;;;;;5.57;4.60;;;18.80;99.90;;;;;;5047484;28;20106;-44
2022/06/26 02:18:06;;;;;;;6.75;4.60;;;18.70;99.90;;;;;;5048160;28;20064;-44
2022/06/26 02:20:32;;;;;;;5.32;4.82;;;18.70;99.90;;;;;;5048318;28;20033;-45
2022/06/26 02:22:57;;;;;;;4.90;4.47;;;18.70;99.90;;;;;;5046586;28;20571;-45
2022/06/26 02:25:23;;;;;;;4.30;3.90;;;18.60;99.90;;;;;;5047540;28;20035;-44
2022/06/26 02:27:48;;;;;;;4.95;4.50;;;18.50;99.90;;;;;;5047911;28;20110;-46
2022/06/26 02:30:14;;;;;;;5.53;4.47;;;18.50;99.90;;;;;;5041264;28;20029;-46
2022/06/26 02:32:41;;;;;;;5.80;4.80;;;18.50;99.90;;;;;;5038508;28;20017;-45
2022/06/26 02:35:07;;;;;;;5.97;4.95;;;18.50;99.90;;;;;;5047598;28;20026;-45
2022/06/26 02:37:33;;;;;;;5.55;4.65;;;18.50;99.90;;;;;;5047778;28;20039;-45
2022/06/26 02:39:58;;;;;;;4.32;3.92;;;18.40;99.90;;;;;;5048133;28;20029;-46
2022/06/26 02:42:24;;;;;;;4.70;4.30;;;18.40;99.90;;;;;;5048095;28;20033;-45
2022/06/26 02:44:49;;;;;;;7.53;5.40;;;18.40;99.90;;;;;;5050962;28;20037;-45
2022/06/26 02:47:15;;;;;;;5.28;4.78;;;18.40;99.90;;;;;;5051531;28;20490;-45
2022/06/26 02:49:40;;;;;;;4.65;4.15;;;18.40;99.90;;;;;;5051321;28;20478;-45
2022/06/26 02:52:06;;;;;;;4.35;4.05;;;18.30;99.90;;;;;;5051114;28;20021;-44
2022/06/26 02:54:32;;;;;;;4.72;4.30;;;18.30;99.90;;;;;;5050861;28;20427;-46
2022/06/26 02:56:57;;;;;;;5.60;5.10;;;18.30;99.90;;;;;;5051520;28;20513;-45
2022/06/26 02:59:23;;;;;;;5.05;4.65;;;18.30;99.90;;;;;;5045301;28;20502;-46
2022/06/26 03:01:49;;;;;;;5.45;4.93;;;18.30;99.90;;;;;;5042353;28;20090;-44
2022/06/26 03:04:14;;;;;;;4.68;4.28;;;18.40;99.90;;;;;;5050711;28;20555;-45
2022/06/26 03:06:40;;;;;;;8.65;4.93;;;18.40;99.90;;;;;;5051596;28;20082;-47
2022/06/26 03:09:05;;;;;;;4.90;4.40;;;18.40;99.90;;;;;;5051143;28;20037;-45
2022/06/26 03:11:31;;;;;;;5.03;4.20;;;18.50;99.90;;;;;;5051239;28;20032;-45
2022/06/26 03:13:56;;;;;;;5.03;4.25;;;18.50;99.90;;;;;;5050917;28;20051;-45
2022/06/26 03:16:22;;;;;;;6.03;4.80;;;18.40;99.90;;;;;;5050499;28;20606;-46
2022/06/26 03:18:47;;;;;;;6.47;4.28;;;18.50;99.90;;;;;;5050726;28;20036;-47
2022/06/26 03:21:13;;;;;;;4.85;4.35;;;18.40;99.90;;;;;;5050613;28;20035;-47
2022/06/26 03:26:22;;;;;;;6.55;4.75;;;18.40;99.90;;;;;;5050393;28;20048;-45
2022/06/26 03:28:48;;;;;;;4.93;4.53;;;18.40;99.90;;;;;;5049504;28;20029;-46
2022/06/26 03:31:14;;;;;;;9.73;4.57;;;18.30;99.90;;;;;;5038810;28;20498;-45
2022/06/26 03:33:40;;;;;;;6.20;4.10;;;18.40;99.90;;;;;;5048658;28;20045;-45
2022/06/26 03:36:08;;;;;;;4.95;4.55;;;18.40;99.90;;;;;;5049710;28;20053;-45
2022/06/26 03:38:34;;;;;;;4.50;4.10;;;18.40;99.90;;;;;;5021247;28;20033;-45
2022/06/26 03:41:00;;;;;;;4.55;4.15;;;18.40;99.90;;;;;;5019502;28;20032;-45
2022/06/26 03:43:25;;;;;;;4.53;4.13;;;18.40;99.90;;;;;;5022542;28;20108;-45
2022/06/26 03:45:51;;;;;;;3.60;3.28;;;18.40;99.90;;;;;;5026463;28;20092;-45
2022/06/26 03:48:16;;;;;;;4.55;3.85;;;18.50;99.90;;;;;;5019388;28;20084;-46
2022/06/26 03:50:42;;;;;;;4.70;4.30;;;18.50;99.90;;;;;;5021729;28;20360;-44
2022/06/26 03:53:07;;;;;;;4.18;3.80;;;18.60;99.90;;;;;;5021342;28;20380;-48
2022/06/26 03:55:33;;;;;;;5.50;4.35;;;18.60;99.90;;;;;;5012403;28;20037;-45
2022/06/26 03:57:58;;;;;;;4.70;4.28;;;18.60;99.90;;;;;;5010711;28;20025;-45
2022/06/26 04:00:24;;;;;;;4.55;4.15;;;18.70;99.90;;;;;;5032259;28;20448;-46
2022/06/26 04:02:50;;;;;;;5.03;4.43;;;18.70;99.90;;;;;;5032221;28;20029;-44
2022/06/26 04:05:16;;;;;;;5.07;4.03;;;18.70;99.90;;;;;;5028371;28;20041;-45
2022/06/26 04:07:41;;;;;;;4.55;4.15;;;18.80;99.90;;;;;;5027242;28;20462;-45
2022/06/26 04:10:07;;;;;;;4.53;3.80;;;18.80;99.90;;;;;;5029161;28;20018;-44
2022/06/26 04:12:32;;;;;;;4.20;3.80;;;18.90;99.90;;;;;;5029070;28;20037;-46
2022/06/26 04:14:58;;;;;;;4.25;3.88;;;18.90;99.90;;;;;;5028567;28;20025;-45
2022/06/26 04:17:23;;;;;;;4.32;3.92;;;19.00;99.90;;;;;;5029311;28;20120;-45
2022/06/26 04:19:49;;;;;;;4.50;3.90;;;19.00;99.90;;;;;;5029672;28;20029;-44
2022/06/26 04:22:15;;;;;;;4.28;3.97;;;19.00;99.90;;;;;;5029569;28;20108;-44
2022/06/26 04:24:41;;;;;;;4.57;4.18;;;19.00;99.90;;;;;;5029178;28;20444;-45
2022/06/26 04:27:06;;;;;;;3.63;3.33;;;19.10;99.90;;;;;;5016564;28;20534;-44
2022/06/26 04:29:32;;;;;;;4.80;3.65;;;19.20;99.90;;;;;;5014728;28;20022;-44
2022/06/26 04:31:57;;;;;;;5.97;3.85;;;19.20;99.90;;;;;;5041113;28;20025;-44
2022/06/26 04:34:23;;;;;;;5.00;4.05;;;19.30;99.90;;;;;;5049199;28;20051;-46
2022/06/26 04:36:48;;;;;;;3.83;3.53;;;19.40;99.90;;;;;;5042016;28;20387;-45
2022/06/26 04:39:14;;;;;;;5.30;3.47;;;19.50;99.90;;;;;;5014804;28;20493;-44
2022/06/26 04:41:39;;;;;;;3.95;3.58;;;19.50;99.90;;;;;;5023288;28;20039;-44
2022/06/26 04:44:10;;;;;;;5.07;3.30;;;19.50;99.90;;;;;;5028924;28;20338;-44
2022/06/26 04:46:37;;;;;;;4.10;3.70;;;19.50;99.90;;;;;;5029644;28;20033;-44
2022/06/26 04:49:03;;;;;;;3.80;3.50;;;19.60;99.90;;;;;;5033164;28;20033;-45
2022/06/26 04:51:29;;;;;;;4.72;3.53;;;19.50;99.90;;;;;;5041163;28;20330;-44
2022/06/26 04:53:54;;;;;;;3.30;3.05;;;19.60;99.90;;;;;;5049135;28;20017;-44
2022/06/26 04:56:20;;;;;;;3.38;3.13;;;19.60;99.90;;;;;;5048966;28;20071;-45
2022/06/26 04:58:46;;;;;;;4.45;3.70;;;19.60;99.90;;;;;;5049592;28;20021;-45
2022/06/26 05:01:11;;;;;;;3.40;3.10;;;19.60;99.90;;;;;;5049360;28;20053;-46
2022/06/26 05:03:37;;;;;;;4.80;3.42;;;19.60;99.90;;;;;;5044175;28;20064;-49
2022/06/26 05:06:03;;;;;;;5.65;3.88;;;19.70;99.90;;;;;;5039694;28;20029;-45
2022/06/26 05:08:28;;;;;;;5.60;3.85;;;19.70;99.90;;;;;;5049258;28;20383;-46
2022/06/26 05:10:53;;;;;;;5.85;4.13;;;19.70;99.90;;;;;;5048812;28;20438;-45
2022/06/26 05:13:19;;;;;;;3.72;3.38;;;19.80;99.90;;;;;;5048926;28;20060;-43
2022/06/26 05:15:46;;;;;;;3.55;3.25;;;19.80;99.90;;;;;;5046796;28;20066;-44
2022/06/26 05:18:12;;;;;;;3.22;2.92;;;19.90;99.90;;;;;;5048635;28;20535;-45
2022/06/26 05:20:38;;;;;;;3.38;3.10;;;19.90;99.90;;;;;;5048424;28;20041;-44
2022/06/26 05:23:04;;;;;;;3.88;3.53;;;19.90;99.90;;;;;;5048639;28;20052;-45
2022/06/26 05:25:30;;;;;;;8.43;3.47;;;20.00;99.90;;;;;;5046573;28;20040;-45
2022/06/26 05:27:56;;;;;;;3.88;3.47;;;20.00;99.90;;;;;;5048855;28;20033;-45
2022/06/26 05:30:21;;;;;;;3.92;3.10;;;20.10;99.90;;;;;;5048544;28;20554;-45
2022/06/26 05:32:47;;;;;;;10.73;3.90;;;20.10;99.90;;;;;;5048461;28;20017;-47
2022/06/26 05:35:12;;;;;;;4.20;3.75;;;20.10;99.90;;;;;;5037360;28;20028;-42
2022/06/26 05:37:38;;;;;;;3.83;3.50;;;20.20;99.90;;;;;;5038224;28;20029;-46
2022/06/26 05:40:04;;;;;;;5.95;3.35;;;20.20;99.90;;;;;;5048568;28;20482;-46
2022/06/26 05:42:30;;;;;;;4.30;3.88;;;20.20;99.90;;;;;;5036724;28;20442;-44
2022/06/26 05:44:55;;;;;;;3.85;3.55;;;20.20;99.90;;;;;;5015855;28;20026;-44
2022/06/26 05:47:21;;;;;;;4.03;3.53;;;20.30;99.90;;;;;;5017658;28;20112;-46
2022/06/26 05:49:46;;;;;;;7.88;3.92;;;20.30;99.90;;;;;;5020767;28;20356;-46
2022/06/26 05:52:12;;;;;;;4.68;3.65;;;20.40;99.90;;;;;;5016345;28;20045;-44
2022/06/26 05:54:37;;;;;;;4.75;3.50;;;20.50;99.90;;;;;;5022270;28;20463;-43
2022/06/26 05:57:03;;;;;;;5.38;3.88;;;20.60;99.90;;;;;;5019979;28;20031;-45
2022/06/26 05:59:28;;;;;;;4.88;3.25;;;20.60;99.90;;;;;;5017924;28;20032;-45
2022/06/26 06:01:54;;;;;;;6.43;3.47;;;20.70;99.90;;;;;;5016154;28;20014;-45
2022/06/26 06:04:20;;;;;;;6.28;3.63;;;20.80;99.90;;;;;;5015596;28;20061;-45
2022/06/26 06:06:46;;;;;;;5.50;3.72;;;21.00;99.90;;;;;;5018057;28;20129;-44
2022/06/26 06:09:11;;;;;;;4.20;3.10;;;21.00;99.90;;;;;;5016027;28;20444;-46
2022/06/26 06:11:37;;;;;;;3.70;3.20;;;21.20;99.90;;;;;;5018058;28;20029;-45
2022/06/26 06:14:02;;;;;;;4.63;3.03;;;21.30;99.90;;;;;;5016549;28;20216;-45
2022/06/26 06:16:28;;;;;;;3.40;3.10;;;21.40;99.90;;;;;;5023810;28;20022;-45
2022/06/26 06:18:53;;;;;;;5.65;3.42;;;21.60;99.90;;;;;;5035160;28;20094;-46
2022/06/26 06:21:19;;;;;;;6.13;3.25;;;21.70;99.90;;;;;;5043502;28;20390;-46
2022/06/26 06:23:44;;;;;;;5.28;3.25;;;21.80;99.90;;;;;;5051922;28;20156;-45
2022/06/26 06:26:11;;;;;;;3.15;2.85;;;21.90;99.90;;;;;;5044428;28;20080;-46
2022/06/26 06:28:36;;;;;;;3.95;3.10;;;22.00;99.90;;;;;;5011964;28;20060;-47
2022/06/26 06:31:02;;;;;;;4.57;3.00;;;22.10;99.90;;;;;;5011761;28;20050;-45
2022/06/26 06:33:27;;;;;;;4.35;3.80;;;22.20;99.90;;;;;;5010319;28;20076;-45
2022/06/26 06:35:55;;;;;;;3.80;3.30;;;22.30;99.90;;;;;;5011228;28;20030;-45
2022/06/26 06:38:21;;;;;;;3.20;2.97;;;22.40;99.90;;;;;;5011764;28;20129;-44
2022/06/26 06:40:47;;;;;;;3.72;3.42;;;22.50;99.90;;;;;;5022282;28;20029;-45
2022/06/26 06:43:13;;;;;;;3.50;3.20;;;22.60;99.90;;;;;;5009908;28;20033;-45
2022/06/26 06:45:38;;;;;;;3.88;3.20;;;22.70;99.90;;;;;;5020650;28;20029;-45
2022/06/26 06:48:04;;;;;;;3.45;2.88;;;22.80;99.90;;;;;;5030967;28;20253;-44
2022/06/26 06:50:30;;;;;;;3.72;2.95;;;22.90;99.90;;;;;;5037874;28;20104;-45
2022/06/26 06:52:56;;;;;;;3.53;3.17;;;23.00;99.90;;;;;;5050995;28;20025;-45
2022/06/26 06:55:22;;;;;;;4.95;2.92;;;23.10;99.90;;;;;;5048265;28;20029;-44
2022/06/26 06:57:47;;;;;;;4.60;2.90;;;23.20;99.90;;;;;;5049462;28;20078;-44
2022/06/26 07:00:13;;;;;;;3.65;2.83;;;23.20;99.90;;;;;;5049548;28;20040;-44
2022/06/26 07:02:39;;;;;;;3.40;3.10;;;23.30;99.90;;;;;;5049646;28;20059;-44
2022/06/26 07:05:06;;;;;;;4.57;3.20;;;23.40;99.90;;;;;;5048656;28;20045;-45
2022/06/26 07:07:32;;;;;;;5.22;3.08;;;23.50;99.90;;;;;;5049396;28;20232;-45
2022/06/26 07:09:57;;;;;;;3.70;3.17;;;23.70;99.90;;;;;;5041492;28;20503;-44
2022/06/26 07:12:23;;;;;;;4.28;2.67;;;23.90;99.90;;;;;;5013484;28;20519;-45
2022/06/26 07:14:48;;;;;;;2.60;2.40;;;24.00;99.90;;;;;;5019010;28;20572;-45
2022/06/26 07:17:14;;;;;;;3.40;2.58;;;24.20;99.90;;;;;;5027759;28;20498;-44
2022/06/26 07:19:39;;;;;;;2.88;2.67;;;24.30;99.90;;;;;;5028689;28;20032;-45
2022/06/26 07:22:05;;;;;;;3.13;2.50;;;24.40;99.90;;;;;;5040198;28;20081;-45
2022/06/26 07:24:31;;;;;;;4.78;2.80;;;24.50;99.90;;;;;;5028732;28;20025;-46
2022/06/26 07:26:57;;;;;;;3.15;2.47;;;24.60;99.90;;;;;;5029247;28;20033;-46
2022/06/26 07:29:23;;;;;;;8.23;2.80;;;24.70;99.90;;;;;;5028351;28;20184;-45
2022/06/26 07:31:48;;;;;;;4.63;2.80;;;24.80;99.90;;;;;;5029369;28;20018;-46
2022/06/26 07:34:15;;;;;;;4.25;3.33;;;25.00;99.90;;;;;;5028425;28;20021;-45
2022/06/26 07:36:41;;;;;;;4.65;2.97;;;25.10;99.90;;;;;;5030351;28;20479;-46
2022/06/26 07:39:08;;;;;;;4.25;2.83;;;25.30;99.90;;;;;;5029155;28;20032;-45
2022/06/26 07:41:34;;;;;;;3.65;2.60;;;25.60;99.90;;;;;;5030635;28;20486;-46
2022/06/26 07:43:59;;;;;;;2.67;2.47;;;25.80;99.90;;;;;;5030265;28;20038;-46
2022/06/26 07:46:25;;;;;;;2.60;2.40;;;26.10;99.90;;;;;;5030178;28;20021;-46
2022/06/26 07:48:50;;;;;;;3.17;2.55;;;26.30;98.70;;;;;;5033206;28;20105;-46
2022/06/26 07:51:16;;;;;;;2.33;2.13;;;26.60;97.90;;;;;;5042039;28;20029;-46
2022/06/26 07:53:41;;;;;;;2.42;2.22;;;26.80;97.90;;;;;;5050175;28;20393;-46
2022/06/26 07:56:07;;;;;;;2.35;2.15;;;27.10;96.90;;;;;;5049507;28;20028;-45
2022/06/26 07:58:32;;;;;;;2.22;2.00;;;27.30;96.50;;;;;;5048579;28;20111;-46
2022/06/26 08:00:58;;;;;;;2.75;2.10;;;27.70;95.30;;;;;;5050344;28;20021;-48
2022/06/26 08:03:24;;;;;;;2.20;1.75;;;27.90;94.80;;;;;;5048503;28;20029;-45
2022/06/26 08:05:49;;;;;;;2.65;2.10;;;28.20;92.60;;;;;;5048786;28;20306;-45
2022/06/26 08:08:15;;;;;;;5.53;1.67;;;28.60;91.80;;;;;;5048337;28;20021;-44
2022/06/26 08:10:41;;;;;;;2.35;1.67;;;28.90;87.70;;;;;;5049649;28;20508;-46
2022/06/26 08:13:07;;;;;;;3.13;1.30;;;29.20;81.70;;;;;;5048456;28;20082;-48
2022/06/26 08:15:34;;;;;;;1.50;1.40;;;30.10;80.60;;;;;;5049202;28;20459;-46
2022/06/26 08:18:00;;;;;;;1.88;1.33;;;31.30;76.20;;;;;;5048351;28;20078;-47
2022/06/26 08:20:25;;;;;;;3.83;1.73;;;32.20;70.50;;;;;;5039683;28;20034;-47
2022/06/26 08:22:51;;;;;;;2.88;1.50;;;32.70;69.10;;;;;;5032040;28;20100;-46
2022/06/26 08:25:18;;;;;;;1.65;1.35;;;32.40;64.60;;;;;;5016681;28;20026;-47
2022/06/26 08:27:44;;;;;;;2.20;1.60;;;31.60;64.40;;;;;;5018817;28;20119;-46
2022/06/26 08:30:10;;;;;;;2.33;1.48;;;31.60;67.10;;;;;;5020193;28;20163;-46
2022/06/26 08:32:36;;;;;;;5.30;1.40;;;32.10;65.40;;;;;;5020034;28;20018;-47
2022/06/26 08:35:03;;;;;;;1.55;1.30;;;32.70;64.00;;;;;;5018144;28;20025;-46
2022/06/26 08:37:38;;;;;;;2.40;1.50;;;33.00;61.20;;;;;;5016143;28;20021;-45
2022/06/26 08:40:04;;;;;;;8.30;1.40;;;33.90;60.30;;;;;;5017807;28;20085;-46
2022/06/26 08:42:31;;;;;;;2.33;1.35;;;34.30;58.90;;;;;;5018022;28;20025;-47
2022/06/26 08:44:58;;;;;;;2.30;1.17;;;34.00;58.10;;;;;;5018797;28;20021;-46
2022/06/26 08:47:26;;;;;;;1.95;1.20;;;34.30;60.10;;;;;;5020540;28;20018;-47
2022/06/26 08:49:52;;;;;;;2.65;1.23;;;34.50;58.50;;;;;;5022234;28;20494;-49
2022/06/26 08:52:21;;;;;;;1.70;1.13;;;34.90;57.40;;;;;;5021498;28;20018;-48
2022/06/26 08:54:48;;;;;;;2.55;1.20;;;35.50;57.90;;;;;;5017327;28;20099;-48
2022/06/26 08:57:17;;;;;;;1.35;1.00;;;35.60;56.20;;;;;;5035084;28;20065;-45
2022/06/26 08:59:43;;;;;;;1.70;1.17;;;35.90;55.80;;;;;;5018809;28;20418;-46
2022/06/26 09:02:09;;;;;;;2.33;1.58;;;36.10;55.30;;;;;;5018745;28;20498;-49
2022/06/26 09:04:55;;;;;;;1.52;1.30;;;36.10;55.10;;;;;;5018159;28;20041;-46
2022/06/26 09:07:21;;;;;;;5.25;1.23;;;36.10;54.70;;;;;;5038079;28;20092;-46
2022/06/26 09:09:46;;;;;;;3.03;1.73;;;36.20;55.50;;;;;;5036257;28;20591;-47
2022/06/26 09:12:12;;;;;;;1.80;1.20;;;36.10;55.40;;;;;;5018765;28;20054;-45
2022/06/26 09:14:37;;;;;;;4.25;1.83;;;37.00;54.50;;;;;;5008577;28;20162;-47
2022/06/26 09:17:05;;;;;;;1.58;1.20;;;37.10;55.50;;;;;;5009056;28;20088;-47
2022/06/26 09:19:41;;;;;;;1.30;1.20;;;38.00;52.70;;;;;;5026656;28;20236;-47
2022/06/26 09:22:10;;;;;;;2.45;1.55;;;38.50;52.20;;;;;;5042365;28;20506;-46
2022/06/26 09:24:37;;;;;;;1.63;1.30;;;39.40;50.50;;;;;;5048114;28;20036;-49
2022/06/26 09:27:06;;;;;;;3.05;1.45;;;39.60;50.70;;;;;;5050187;28;20063;-49
2022/06/26 09:29:31;;;;;;;1.95;1.23;;;40.40;49.60;;;;;;5050121;28;20036;-48
2022/06/26 09:32:07;;;;;;;4.25;1.52;;;41.10;48.60;;;;;;5050178;28;20040;-50
2022/06/26 09:34:33;;;;;;;4.22;1.55;;;41.00;47.30;;;;;;5049388;28;20115;-46
2022/06/26 09:37:02;;;;;;;1.15;1.05;;;40.90;46.60;;;;;;5049951;28;20029;-48
2022/06/26 09:39:30;;;;;;;1.35;1.17;;;40.90;46.90;;;;;;5050264;28;20028;-49
2022/06/26 09:41:55;;;;;;;3.38;1.77;;;41.30;46.30;;;;;;5050180;28;20025;-46
2022/06/26 09:44:22;;;;;;;2.28;1.27;;;41.20;45.00;;;;;;5031721;28;20083;-49
2022/06/26 09:46:48;;;;;;;1.95;1.33;;;41.10;44.60;;;;;;5050181;28;20044;-48
2022/06/26 09:49:14;;;;;;;1.95;1.55;;;40.40;45.70;;;;;;5048294;28;20082;-48
2022/06/26 09:51:40;;;;;;;3.33;1.40;;;41.10;46.30;;;;;;5042015;28;20024;-48
2022/06/26 09:54:06;;;;;;;1.75;1.30;;;40.50;45.60;;;;;;5053450;28;20036;-47
2022/06/26 09:56:32;;;;;;;2.00;1.23;;;41.10;46.40;;;;;;5054050;28;20048;-48
2022/06/26 09:58:59;;;;;;;2.47;1.90;;;41.00;45.50;;;;;;5053076;28;20067;-46
2022/06/26 10:07:00;;;;;;;2.60;1.48;;;40.60;46.50;;;;;;5052321;28;20128;-48
2022/06/26 10:09:27;;;;;;;1.52;1.20;;;41.10;45.80;;;;;;5052114;28;20036;-49
2022/06/26 10:11:55;;;;;;;1.52;1.30;;;41.50;45.40;;;;;;5052745;28;20037;-45
2022/06/26 10:14:27;;;;;;;3.42;1.67;;;41.60;43.50;;;;;;5052888;28;20071;-48
2022/06/26 10:17:26;;;;;;;2.63;1.20;;;41.20;42.70;;;;;;5049786;28;20017;-50
2022/06/26 10:19:54;;;;;;;2.25;1.48;;;41.50;43.50;;;;;;5030708;28;20377;-48
2022/06/26 10:22:20;;;;;;;5.40;1.80;;;41.10;42.40;;;;;;5048497;28;20017;-46
2022/06/26 10:24:50;;;;;;;1.55;1.20;;;40.90;44.10;;;;;;5052411;28;20501;-47
2022/06/26 10:27:15;;;;;;;2.05;1.48;;;40.60;44.60;;;;;;5053015;28;20055;-49
2022/06/26 10:29:41;;;;;;;3.30;1.80;;;40.80;44.00;;;;;;5051587;28;20513;-50
2022/06/26 10:32:07;;;;;;;2.63;1.50;;;41.50;42.60;;;;;;5052770;28;20053;-47
2022/06/26 10:34:34;;;;;;;1.00;0.90;;;41.50;43.40;;;;;;5050729;28;20032;-46
2022/06/26 10:37:01;;;;;;;1.63;1.02;;;42.30;42.70;;;;;;5039634;28;20057;-47
2022/06/26 10:39:39;;;;;;;2.97;1.20;;;42.00;42.40;;;;;;5011759;28;20592;-46
2022/06/26 10:45:20;;;;;;;2.05;1.10;;;40.80;42.80;;;;;;5032047;28;20453;-47
2022/06/26 10:47:47;;;;;;;1.58;1.40;;;39.10;43.70;;;;;;5031442;28;20025;-46
2022/06/26 10:50:35;;;;;;;1.40;1.17;;;38.60;44.00;;;;;;5038143;28;20103;-45
2022/06/26 10:53:16;;;;;;;3.33;1.42;;;37.60;44.50;;;;;;5011670;28;20507;-46
2022/06/26 10:55:48;;;;;;;1.40;1.30;;;36.90;45.50;;;;;;5026635;28;20026;-48
2022/06/26 10:58:22;;;;;;;2.20;1.42;;;36.40;45.50;;;;;;5037560;28;20469;-48
2022/06/26 11:00:49;;;;;;;1.30;1.20;;;36.00;47.50;;;;;;5038475;28;20386;-48
2022/06/26 11:03:16;;;;;;;5.38;1.40;;;35.20;47.30;;;;;;5035011;28;20032;-47
2022/06/26 11:05:56;;;;;;;4.22;1.33;;;34.90;47.40;;;;;;5028606;28;20104;-47
2022/06/26 11:08:30;;;;;;;1.45;1.23;;;34.50;48.20;;;;;;5031913;28;20375;-46
2022/06/26 11:11:07;;;;;;;5.10;1.70;;;34.50;48.20;;;;;;5030469;28;20025;-47
2022/06/26 11:13:34;;;;;;;1.20;1.10;;;34.50;47.10;;;;;;5031372;28;20117;-48
2022/06/26 11:16:00;;;;;;;2.25;1.38;;;34.20;47.70;;;;;;5030565;28;20049;-45
2022/06/26 11:18:31;;;;;;;1.63;1.40;;;33.40;48.80;;;;;;5038125;28;20646;-45
2022/06/26 11:20:57;;;;;;;1.40;1.30;;;33.40;48.90;;;;;;5028224;28;20045;-48
2022/06/26 11:23:27;;;;;;;3.25;1.42;;;33.00;50.10;;;;;;5027037;28;20033;-46
2022/06/26 11:26:01;;;;;;;1.80;1.27;;;32.70;49.60;;;;;;5029323;28;20684;-49
2022/06/26 11:28:33;;;;;;;1.83;1.52;;;32.20;50.60;;;;;;5011784;28;20026;-45
2022/06/26 11:30:59;;;;;;;2.00;1.58;;;31.70;50.40;;;;;;5011513;28;20091;-46
2022/06/26 11:33:28;;;;;;;1.65;1.50;;;31.20;51.70;;;;;;5016715;28;20424;-45
2022/06/26 11:35:55;;;;;;;3.58;1.55;;;30.70;52.30;;;;;;5028514;28;20125;-47
2022/06/26 11:38:22;;;;;;;2.03;1.63;;;30.50;53.30;;;;;;5031333;28;20075;-46
2022/06/26 11:40:48;;;;;;;3.28;1.63;;;30.30;53.60;;;;;;5029383;28;20079;-47
2022/06/26 11:43:15;;;;;;;2.05;1.52;;;30.00;53.80;;;;;;5031156;28;20071;-46
2022/06/26 11:45:42;;;;;;;1.67;1.48;;;29.90;54.20;;;;;;5030146;28;20117;-46
2022/06/26 11:48:13;;;;;;;4.30;1.90;;;30.10;54.20;;;;;;5031191;28;20378;-45
2022/06/26 11:50:39;;;;;;;2.78;1.65;;;29.90;55.00;;;;;;5038755;28;20056;-49
2022/06/26 11:53:06;;;;;;;4.68;2.00;;;29.80;55.20;;;;;;5050909;28;20029;-46
2022/06/26 11:55:33;;;;;;;2.05;1.73;;;29.90;55.50;;;;;;5049850;28;20017;-49
2022/06/26 11:58:02;;;;;;;3.42;1.77;;;29.90;54.80;;;;;;5050584;28;20486;-46
2022/06/26 12:00:28;;;;;;;1.98;1.70;;;29.50;55.70;;;;;;5050819;28;20029;-48
2022/06/26 12:02:54;;;;;;;3.15;1.42;;;29.70;55.90;;;;;;5050429;28;20032;-46
2022/06/26 12:05:21;;;;;;;4.70;1.70;;;29.80;55.80;;;;;;5048203;28;20535;-46
2022/06/26 12:07:49;;;;;;;2.22;2.03;;;29.70;56.40;;;;;;5050285;28;20079;-46
2022/06/26 12:10:25;;;;;;;1.65;1.55;;;29.80;57.00;;;;;;5050531;28;20028;-48
2022/06/26 12:12:51;;;;;;;4.55;2.08;;;29.60;57.00;;;;;;5050082;28;20045;-46
2022/06/26 12:15:18;;;;;;;2.00;1.67;;;29.70;57.30;;;;;;5049440;28;20028;-48
2022/06/26 12:17:52;;;;;;;4.15;1.88;;;29.70;56.90;;;;;;5050092;28;20029;-45
2022/06/26 12:20:17;;;;;;;2.05;1.80;;;29.70;56.60;;;;;;5040174;28;20025;-47
2022/06/26 12:22:49;;;;;;;3.10;2.10;;;29.60;56.30;;;;;;5029759;28;20056;-46
2022/06/26 12:25:32;;;;;;;1.70;1.60;;;29.70;56.80;;;;;;5029679;28;20033;-46
2022/06/26 12:27:59;;;;;;;3.38;2.00;;;30.00;57.50;;;;;;5030146;28;20025;-45
2022/06/26 12:30:35;;;;;;;3.35;2.03;;;30.00;57.00;;;;;;5030390;28;20021;-46
2022/06/26 12:33:04;;;;;;;1.92;1.70;;;30.10;57.50;;;;;;5026442;28;20124;-47
2022/06/26 12:35:31;;;;;;;2.75;2.05;;;30.30;56.50;;;;;;5016519;28;20093;-47
2022/06/26 12:37:58;;;;;;;3.50;1.60;;;30.20;55.90;;;;;;5019936;28;20048;-47
2022/06/26 12:40:24;;;;;;;2.33;2.00;;;30.20;56.00;;;;;;5020561;28;20014;-48
2022/06/26 12:42:50;;;;;;;2.20;1.95;;;30.10;57.30;;;;;;5018368;28;20526;-48
2022/06/26 12:45:15;;;;;;;2.08;1.85;;;30.20;56.60;;;;;;5019183;28;20017;-48
2022/06/26 12:47:41;;;;;;;2.25;1.98;;;30.30;56.40;;;;;;5017652;28;20064;-47
2022/06/26 12:50:08;;;;;;;1.85;1.60;;;30.30;56.70;;;;;;5029825;28;20094;-51
2022/06/26 12:52:34;;;;;;;2.15;1.95;;;30.30;55.80;;;;;;5026017;28;20025;-50
2022/06/26 12:55:05;;;;;;;2.13;1.55;;;30.40;56.30;;;;;;5018368;28;20104;-46
2022/06/26 12:57:30;;;;;;;1.90;1.80;;;30.30;56.80;;;;;;5020033;28;20032;-48
2022/06/26 12:59:56;;;;;;;3.72;1.73;;;30.60;57.80;;;;;;5017106;28;20022;-50
2022/06/26 13:02:22;;;;;;;3.55;1.73;;;30.90;57.90;;;;;;5019132;28;20064;-47